createdAt,value
2022-11-05T00:02:27.513Z,7.70
2022-11-05T00:05:14.170Z,7.93
2022-11-05T00:08:01.612Z,7.43
2022-11-05T00:10:32.164Z,7.97
2022-11-05T00:13:18.925Z,8.03
2022-11-05T00:16:04.624Z,8.10
2022-11-05T00:18:32.836Z,8.10
2022-11-05T00:21:02.239Z,8.87
2022-11-05T00:23:47.438Z,8.50
2022-11-05T00:26:15.462Z,8.50
2022-11-05T00:28:44.684Z,8.73
2022-11-05T00:31:14.523Z,7.97
2022-11-05T00:33:44.174Z,8.37
2022-11-05T00:36:13.499Z,8.47
2022-11-05T00:38:41.464Z,7.93
2022-11-05T00:41:09.445Z,8.43
2022-11-05T00:43:54.671Z,8.93
2022-11-05T00:46:23.383Z,8.90
2022-11-05T00:49:08.612Z,9.17
2022-11-05T00:51:37.930Z,8.23
2022-11-05T00:54:05.953Z,8.93
2022-11-05T00:56:33.933Z,9.40
2022-11-05T00:59:01.908Z,9.27
2022-11-05T01:01:29.939Z,10.17
2022-11-05T01:03:58.050Z,9.20
2022-11-05T01:06:26.001Z,9.37
2022-11-05T01:08:57.311Z,9.40
2022-11-05T01:11:34.150Z,9.80
2022-11-05T01:14:03.974Z,9.60
2022-11-05T01:16:33.451Z,9.87
2022-11-05T01:19:02.369Z,9.03
2022-11-05T01:21:30.347Z,10.07
2022-11-05T01:23:59.734Z,8.77
2022-11-05T01:26:28.228Z,9.70
2022-11-05T01:28:57.808Z,8.70
2022-11-05T01:31:26.113Z,8.57
2022-11-05T01:33:54.117Z,9.73
2022-11-05T01:36:22.219Z,9.30
2022-11-05T01:38:50.157Z,8.93
2022-11-05T01:41:19.490Z,9.63
2022-11-05T01:43:49.583Z,9.50
2022-11-05T01:46:19.463Z,9.93
2022-11-05T01:48:50.527Z,9.77
2022-11-05T01:51:21.727Z,9.20
2022-11-05T01:53:53.191Z,10.17
2022-11-05T01:56:25.616Z,9.60
2022-11-05T01:58:56.709Z,9.07
2022-11-05T02:01:25.436Z,9.10
2022-11-05T02:03:57.526Z,9.33
2022-11-05T02:06:26.859Z,8.83
2022-11-05T02:09:00.830Z,8.70
2022-11-05T02:11:30.566Z,8.93
2022-11-05T02:13:58.686Z,8.80
2022-11-05T02:16:37.635Z,8.57
2022-11-05T02:19:17.543Z,9.57
2022-11-05T02:22:11.298Z,8.83
2022-11-05T02:25:10.303Z,8.43
2022-11-05T02:28:16.301Z,7.60
2022-11-05T02:30:49.685Z,8.00
2022-11-05T02:33:28.740Z,7.57
2022-11-05T02:36:25.341Z,7.13
2022-11-05T02:39:06.080Z,6.47
2022-11-05T02:41:41.588Z,6.40
2022-11-05T02:44:18.580Z,6.10
2022-11-05T02:46:57.632Z,5.87
2022-11-05T02:49:38.343Z,5.87
2022-11-05T02:52:10.650Z,5.17
2022-11-05T02:54:44.106Z,5.00
2022-11-05T02:57:12.113Z,5.67
2022-11-05T02:59:40.123Z,5.67
2022-11-05T03:02:09.844Z,5.53
2022-11-05T03:04:38.003Z,5.17
2022-11-05T03:07:21.460Z,4.73
2022-11-05T03:10:22.002Z,4.83
2022-11-05T03:13:01.934Z,4.60
2022-11-05T03:15:43.213Z,4.67
2022-11-05T03:18:17.042Z,4.20
2022-11-05T03:20:50.050Z,4.67
2022-11-05T03:23:25.838Z,4.90
2022-11-05T03:25:59.274Z,4.80
2022-11-05T03:28:32.119Z,4.93
2022-11-05T03:31:01.121Z,5.20
2022-11-05T03:33:34.484Z,5.07
2022-11-05T03:36:07.819Z,5.60
2022-11-05T03:38:39.714Z,6.00
2022-11-05T03:41:10.908Z,5.63
2022-11-05T03:43:42.876Z,6.07
2022-11-05T03:46:13.415Z,6.50
2022-11-05T03:48:48.468Z,7.10
2022-11-05T03:51:25.152Z,6.83
2022-11-05T03:53:58.502Z,7.13
2022-11-05T03:56:31.505Z,6.57
2022-11-05T03:59:01.890Z,6.83
2022-11-05T04:01:31.073Z,7.27
2022-11-05T04:04:00.464Z,8.20
2022-11-05T04:06:46.041Z,8.17
2022-11-05T04:09:31.527Z,8.80
2022-11-05T04:12:17.126Z,8.43
2022-11-05T04:14:45.078Z,7.80
2022-11-05T04:17:12.227Z,9.47
2022-11-05T04:20:00.731Z,9.43
2022-11-05T04:22:47.649Z,8.97
2022-11-05T04:25:16.659Z,9.40
2022-11-05T04:27:44.880Z,9.37
2022-11-05T04:30:18.817Z,10.47
2022-11-05T04:33:04.481Z,8.97
2022-11-05T04:35:35.920Z,9.63
2022-11-05T04:38:04.454Z,9.90
2022-11-05T04:40:32.749Z,9.27
2022-11-05T04:43:00.888Z,9.03
2022-11-05T04:45:31.078Z,8.87
2022-11-05T04:47:59.110Z,8.03
2022-11-05T04:50:27.536Z,9.00
2022-11-05T04:52:56.866Z,8.63
2022-11-05T04:55:24.845Z,8.43
2022-11-05T04:57:54.039Z,9.17
2022-11-05T05:00:23.124Z,8.20
2022-11-05T05:02:51.638Z,9.27
2022-11-05T05:05:19.707Z,7.73
2022-11-05T05:07:47.703Z,8.23
2022-11-05T05:10:17.051Z,8.03
2022-11-05T05:12:45.098Z,8.43
2022-11-05T05:15:13.381Z,8.30
2022-11-05T05:17:41.382Z,7.73
2022-11-05T05:20:27.201Z,7.67
2022-11-05T05:22:55.939Z,7.07
2022-11-05T05:25:25.424Z,7.17
2022-11-05T05:27:53.402Z,6.50
2022-11-05T05:30:21.460Z,7.10
2022-11-05T05:32:49.659Z,7.33
2022-11-05T05:35:18.072Z,7.70
2022-11-05T05:37:46.100Z,7.10
2022-11-05T05:40:14.178Z,6.27
2022-11-05T05:42:43.771Z,6.60
2022-11-05T05:45:13.223Z,6.87
2022-11-05T05:47:41.234Z,6.47
2022-11-05T05:50:09.489Z,6.90
2022-11-05T05:52:37.493Z,6.53
2022-11-05T05:55:06.088Z,6.57
2022-11-05T05:57:35.411Z,5.93
2022-11-05T06:00:05.892Z,6.97
2022-11-05T06:02:34.005Z,5.50
2022-11-05T06:05:02.136Z,6.07
2022-11-05T06:07:34.513Z,6.20
2022-11-05T06:10:05.763Z,7.07
2022-11-05T06:12:33.808Z,7.27
2022-11-05T06:15:01.785Z,6.77
2022-11-05T06:17:31.107Z,7.03
2022-11-05T06:19:59.085Z,6.63
2022-11-05T06:22:27.073Z,6.40
2022-11-05T06:24:55.103Z,5.80
2022-11-05T06:27:23.064Z,6.13
2022-11-05T06:29:51.108Z,5.90
2022-11-05T06:32:19.091Z,6.53
2022-11-05T06:34:48.508Z,6.10
2022-11-05T06:37:16.536Z,6.23
2022-11-05T06:39:44.748Z,5.50
2022-11-05T06:42:18.299Z,6.23
2022-11-05T06:44:46.958Z,5.33
2022-11-05T06:47:14.956Z,5.40
2022-11-05T06:49:42.999Z,5.40
2022-11-05T06:52:12.625Z,5.60
2022-11-05T06:54:41.106Z,5.63
2022-11-05T06:57:09.965Z,5.67
2022-11-05T06:59:38.077Z,5.73
2022-11-05T07:02:06.645Z,5.20
2022-11-05T07:04:35.079Z,5.00
2022-11-05T07:07:03.208Z,5.20
2022-11-05T07:09:32.743Z,4.87
2022-11-05T07:12:00.782Z,4.50
2022-11-05T07:14:28.834Z,5.03
2022-11-05T07:16:58.445Z,4.67
2022-11-05T07:19:26.519Z,5.30
2022-11-05T07:21:54.983Z,4.90
2022-11-05T07:24:23.031Z,4.73
2022-11-05T07:26:52.378Z,4.53
2022-11-05T07:29:20.382Z,4.47
2022-11-05T07:31:48.701Z,4.73
2022-11-05T07:34:16.729Z,4.50
2022-11-05T07:36:44.770Z,5.00
2022-11-05T07:39:12.871Z,4.43
2022-11-05T07:41:40.974Z,4.90
2022-11-05T07:44:10.328Z,4.40
2022-11-05T07:46:38.463Z,4.70
2022-11-05T07:49:06.821Z,4.30
2022-11-05T07:51:34.837Z,4.00
2022-11-05T07:54:02.978Z,4.57
2022-11-05T07:56:31.057Z,4.97
2022-11-05T07:58:59.111Z,4.47
2022-11-05T08:01:28.720Z,4.23
2022-11-05T08:03:56.927Z,4.57
2022-11-05T08:06:24.982Z,4.17
2022-11-05T08:08:52.940Z,4.00
2022-11-05T08:11:20.945Z,5.00
2022-11-05T08:13:48.983Z,4.20
2022-11-05T08:16:17.627Z,4.27
2022-11-05T08:18:47.044Z,3.83
2022-11-05T08:21:15.068Z,4.07
2022-11-05T08:23:43.050Z,3.87
2022-11-05T08:26:12.114Z,4.23
2022-11-05T08:28:40.106Z,3.80
2022-11-05T08:31:08.175Z,4.20
2022-11-05T08:33:36.155Z,4.07
2022-11-05T08:36:06.442Z,4.00
2022-11-05T08:38:34.451Z,4.30
2022-11-05T08:41:02.565Z,3.83
2022-11-05T08:43:30.537Z,3.47
2022-11-05T08:46:00.616Z,3.80
2022-11-05T08:48:28.697Z,3.67
2022-11-05T08:50:56.770Z,4.17
2022-11-05T08:53:26.130Z,3.33
2022-11-05T08:55:55.229Z,3.90
2022-11-05T08:58:23.251Z,3.40
2022-11-05T09:00:51.590Z,3.90
2022-11-05T09:03:20.068Z,3.40
2022-11-05T09:05:48.130Z,3.60
2022-11-05T09:08:17.812Z,3.77
2022-11-05T09:10:49.740Z,3.77
2022-11-05T09:13:19.778Z,3.53
2022-11-05T09:15:48.404Z,3.47
2022-11-05T09:18:17.116Z,3.10
2022-11-05T09:20:45.821Z,4.13
2022-11-05T09:23:15.990Z,3.67
2022-11-05T09:25:44.509Z,4.30
2022-11-05T09:28:17.180Z,3.33
2022-11-05T09:30:47.349Z,2.97
2022-11-05T09:33:16.438Z,3.00
2022-11-05T09:35:44.511Z,2.63
2022-11-05T09:38:12.917Z,3.27
2022-11-05T09:40:45.375Z,2.47
2022-11-05T09:43:20.297Z,3.07
2022-11-05T09:45:52.412Z,3.20
2022-11-05T09:48:25.247Z,2.87
2022-11-05T09:50:54.697Z,3.10
2022-11-05T09:53:24.545Z,2.73
2022-11-05T09:55:56.277Z,3.57
2022-11-05T09:58:35.403Z,2.90
2022-11-05T10:01:05.363Z,2.60
2022-11-05T10:03:40.226Z,4.50
2022-11-05T10:06:10.870Z,3.47
2022-11-05T10:08:43.785Z,2.90
2022-11-05T10:11:17.288Z,3.17
2022-11-05T10:13:49.023Z,2.80
2022-11-05T10:16:24.995Z,3.33
2022-11-05T10:18:57.162Z,2.90
2022-11-05T10:21:51.615Z,3.50
2022-11-05T10:24:19.406Z,3.67
2022-11-05T10:26:49.005Z,3.33
2022-11-05T10:29:26.980Z,3.57
2022-11-05T10:37:01.678Z,3.10
2022-11-05T10:39:37.426Z,3.40
2022-11-05T10:42:31.062Z,3.40
2022-11-05T10:45:08.873Z,3.97
2022-11-05T10:47:50.285Z,2.80
2022-11-05T10:50:21.191Z,2.67
2022-11-05T10:52:59.254Z,3.33
2022-11-05T10:55:30.238Z,2.60
2022-11-05T10:58:10.296Z,3.20
2022-11-05T11:00:38.741Z,2.47
2022-11-05T11:03:38.121Z,2.97
2022-11-05T11:06:20.745Z,2.90
2022-11-05T11:08:52.409Z,2.93
2022-11-05T11:11:33.868Z,2.20
2022-11-05T11:14:04.801Z,3.03
2022-11-05T11:16:38.152Z,2.77
2022-11-05T11:19:25.174Z,2.77
2022-11-05T11:22:17.681Z,2.80
2022-11-05T11:24:49.488Z,2.63
2022-11-05T11:27:22.108Z,3.10
2022-11-05T11:29:56.053Z,3.00
2022-11-05T11:32:28.454Z,3.17
2022-11-05T11:34:58.363Z,5.80
2022-11-05T11:37:29.551Z,2.97
2022-11-05T11:40:03.895Z,3.00
2022-11-05T11:42:34.723Z,2.80
2022-11-05T11:45:08.155Z,3.13
2022-11-05T11:47:36.274Z,3.17
2022-11-05T11:50:04.418Z,3.30
2022-11-05T11:52:34.575Z,2.93
2022-11-05T11:55:20.075Z,3.93
2022-11-05T11:57:50.318Z,3.33
2022-11-05T12:00:20.105Z,3.23
2022-11-05T12:03:02.120Z,2.83
2022-11-05T12:05:44.708Z,3.20
2022-11-05T12:08:30.401Z,2.90
2022-11-05T12:11:06.689Z,3.20
2022-11-05T12:13:54.858Z,3.00
2022-11-05T12:16:31.027Z,2.60
2022-11-05T12:19:07.723Z,2.83
2022-11-05T12:21:58.144Z,3.50
2022-11-05T12:25:02.736Z,3.00
2022-11-05T12:27:50.831Z,3.40
2022-11-05T12:30:20.579Z,3.03
2022-11-05T12:33:09.991Z,4.57
2022-11-05T12:35:48.960Z,3.20
2022-11-05T12:38:29.506Z,2.63
2022-11-05T12:41:11.423Z,2.27
2022-11-05T12:43:55.668Z,3.13
2022-11-05T12:46:29.477Z,2.87
2022-11-05T12:49:25.144Z,2.80
2022-11-05T12:52:09.642Z,3.00
2022-11-05T12:55:04.102Z,2.37
2022-11-05T12:57:35.549Z,2.60
2022-11-05T13:00:10.534Z,2.60
2022-11-05T13:02:46.195Z,3.17
2022-11-05T13:05:17.736Z,2.63
2022-11-05T13:07:54.801Z,2.77
2022-11-05T13:10:30.937Z,2.20
2022-11-05T13:13:06.223Z,2.70
2022-11-05T13:15:39.933Z,2.20
2022-11-05T13:18:14.532Z,2.40
2022-11-05T13:20:47.435Z,2.50
2022-11-05T13:23:24.158Z,2.20
2022-11-05T13:25:58.942Z,2.17
2022-11-05T13:28:41.938Z,2.37
2022-11-05T13:31:15.963Z,2.30
2022-11-05T13:33:46.632Z,2.10
2022-11-05T13:36:35.721Z,2.10
2022-11-05T13:39:12.727Z,2.20
2022-11-05T13:42:02.497Z,2.10
2022-11-05T13:44:48.649Z,2.47
2022-11-05T13:47:38.199Z,2.57
2022-11-05T13:50:51.009Z,2.50
2022-11-05T13:53:49.950Z,1.77
2022-11-05T13:56:35.869Z,2.80
2022-11-05T13:59:30.018Z,1.87
2022-11-05T14:02:00.334Z,1.73
2022-11-05T14:04:35.393Z,1.83
2022-11-05T14:07:09.650Z,3.30
2022-11-05T14:09:38.947Z,1.70
2022-11-05T14:12:15.946Z,1.70
2022-11-05T14:14:48.553Z,1.60
2022-11-05T14:17:27.639Z,1.30
2022-11-05T14:20:25.276Z,1.57
2022-11-05T14:22:53.766Z,1.57
2022-11-05T14:26:01.314Z,1.80
2022-11-05T14:28:48.379Z,2.20
2022-11-05T14:32:07.137Z,1.77
2022-11-05T14:34:48.217Z,1.60
2022-11-05T14:37:27.445Z,1.40
2022-11-05T14:39:56.610Z,1.93
2022-11-05T14:42:27.682Z,1.77
2022-11-05T14:45:04.509Z,2.53
2022-11-05T14:47:35.436Z,1.90
2022-11-05T14:50:09.941Z,2.20
2022-11-05T14:52:40.907Z,2.43
2022-11-05T14:55:27.946Z,1.90
2022-11-05T14:58:17.986Z,1.90
2022-11-05T15:00:50.303Z,1.57
2022-11-05T15:03:42.633Z,1.77
2022-11-05T15:06:29.770Z,1.63
2022-11-05T15:09:20.686Z,1.60
2022-11-05T15:12:12.566Z,1.30
2022-11-05T15:14:49.152Z,2.00
2022-11-05T15:17:22.967Z,1.73
2022-11-05T15:19:53.239Z,1.83
2022-11-05T15:22:33.908Z,1.77
2022-11-05T15:25:05.305Z,2.10
2022-11-05T15:27:51.320Z,1.83
2022-11-05T15:30:21.772Z,1.60
2022-11-05T15:32:49.747Z,1.83
2022-11-05T15:35:27.004Z,3.20
2022-11-05T15:38:01.657Z,3.80
2022-11-05T15:40:34.475Z,2.77
2022-11-05T15:43:19.475Z,2.40
2022-11-05T15:46:03.249Z,2.07
2022-11-05T15:48:31.503Z,2.20
2022-11-05T15:50:59.724Z,2.33
2022-11-05T15:56:51.907Z,2.47
2022-11-05T15:59:22.204Z,2.80
2022-11-05T16:01:52.192Z,1.90
2022-11-05T16:04:22.439Z,2.70
2022-11-05T16:06:53.458Z,3.33
2022-11-05T16:09:24.223Z,2.60
2022-11-05T16:12:13.572Z,2.40
2022-11-05T16:14:42.340Z,2.37
2022-11-05T16:17:21.657Z,2.60
2022-11-05T16:19:50.177Z,2.30
2022-11-05T16:22:18.730Z,2.83
2022-11-05T16:24:47.843Z,7.07
2022-11-05T16:27:20.021Z,6.87
2022-11-05T16:29:51.862Z,5.03
2022-11-05T16:32:28.560Z,4.40
2022-11-05T16:35:00.605Z,4.67
2022-11-05T16:37:30.772Z,4.43
2022-11-05T16:39:58.766Z,4.67
2022-11-05T16:42:45.499Z,10.43
2022-11-05T16:45:14.808Z,9.63
2022-11-05T16:47:44.093Z,8.17
2022-11-05T16:50:18.495Z,7.77
2022-11-05T16:52:47.216Z,6.27
2022-11-05T16:55:16.717Z,5.40
2022-11-05T16:57:48.954Z,4.17
2022-11-05T17:00:19.050Z,3.00
2022-11-05T17:02:47.599Z,3.20
2022-11-05T17:05:22.499Z,2.80
2022-11-05T17:07:50.500Z,2.47
2022-11-05T17:10:18.849Z,3.00
2022-11-05T17:15:23.663Z,3.00
2022-11-05T17:17:52.373Z,2.83
2022-11-05T17:20:39.801Z,2.40
2022-11-05T17:23:10.326Z,2.97
2022-11-05T17:25:38.870Z,2.87
2022-11-05T17:28:07.230Z,2.80
2022-11-05T17:30:36.673Z,3.13
2022-11-05T17:33:04.804Z,2.80
2022-11-05T17:35:33.250Z,2.53
2022-11-05T17:38:01.237Z,2.60
2022-11-05T17:40:30.395Z,2.50
2022-11-05T17:42:58.654Z,2.40
2022-11-05T17:45:26.664Z,2.27
2022-11-05T17:47:56.051Z,2.30
2022-11-05T17:50:24.115Z,2.60
2022-11-05T17:52:52.128Z,2.73
2022-11-05T17:55:20.276Z,2.90
2022-11-05T17:57:49.707Z,2.73
2022-11-05T18:00:19.674Z,2.20
2022-11-05T18:02:49.385Z,2.90
2022-11-05T18:05:19.970Z,2.37
2022-11-05T18:07:48.797Z,2.23
2022-11-05T18:10:17.233Z,3.60
2022-11-05T18:12:46.972Z,3.50
2022-11-05T18:15:15.634Z,4.43
2022-11-05T18:17:44.022Z,5.23
2022-11-05T18:20:18.646Z,6.83
2022-11-05T18:22:50.952Z,7.70
2022-11-05T18:25:19.760Z,8.60
2022-11-05T18:27:47.772Z,7.37
2022-11-05T18:30:15.959Z,6.50
2022-11-05T18:32:44.742Z,7.63
2022-11-05T18:35:14.394Z,6.80
2022-11-05T18:37:42.436Z,6.87
2022-11-05T18:40:12.877Z,6.60
2022-11-05T18:42:40.824Z,7.50
2022-11-05T18:45:10.695Z,5.50
2022-11-05T18:47:38.714Z,6.30
2022-11-05T18:50:08.113Z,8.07
2022-11-05T18:52:36.387Z,5.33
2022-11-05T18:55:04.637Z,5.87
2022-11-05T18:57:34.683Z,5.37
2022-11-05T19:00:02.822Z,4.00
2022-11-05T19:02:30.895Z,4.33
2022-11-05T19:07:46.989Z,7.60
2022-11-05T19:10:15.049Z,9.03
2022-11-05T19:12:44.436Z,15.70
2022-11-05T19:15:12.775Z,9.70
2022-11-05T19:17:40.827Z,9.83
2022-11-05T19:20:10.271Z,7.37
2022-11-05T19:22:38.266Z,7.33
2022-11-05T19:25:07.543Z,7.53
2022-11-05T19:27:36.656Z,7.43
2022-11-05T19:30:07.493Z,8.17
2022-11-05T19:32:35.514Z,8.73
2022-11-05T19:35:03.517Z,8.20
2022-11-05T19:37:31.506Z,6.30
2022-11-05T19:39:59.529Z,4.97
2022-11-05T19:42:28.110Z,5.47
2022-11-05T19:44:56.148Z,3.67
2022-11-05T19:47:25.671Z,4.03
2022-11-05T19:49:53.659Z,35.33
2022-11-05T19:52:22.168Z,34.93
2022-11-05T19:54:50.182Z,27.50
2022-11-05T19:57:18.193Z,19.20
2022-11-05T19:59:46.225Z,21.57
2022-11-05T20:02:16.457Z,19.40
2022-11-05T20:04:46.090Z,20.93
2022-11-05T20:07:14.145Z,20.50
2022-11-05T20:09:42.345Z,16.13
2022-11-05T20:12:10.404Z,15.70
2022-11-05T20:14:38.865Z,11.17
2022-11-05T20:17:06.902Z,10.57
2022-11-05T20:19:35.432Z,9.23
2022-11-05T20:22:04.893Z,10.67
2022-11-05T20:24:33.099Z,10.03
2022-11-05T20:27:01.133Z,8.70
2022-11-05T20:29:35.340Z,7.57
2022-11-05T20:32:04.609Z,6.80
2022-11-05T20:34:34.707Z,5.77
2022-11-05T20:37:04.169Z,6.63
2022-11-05T20:39:32.190Z,6.03
2022-11-05T20:42:00.858Z,4.97
2022-11-05T20:44:29.087Z,4.07
2022-11-05T20:46:57.160Z,4.40
2022-11-05T20:49:25.989Z,3.50
2022-11-05T20:51:54.576Z,3.10
2022-11-05T20:54:25.120Z,3.17
2022-11-05T20:56:53.133Z,2.90
2022-11-05T20:59:21.161Z,2.63
2022-11-05T21:01:51.212Z,2.80
2022-11-05T21:04:19.353Z,3.50
2022-11-05T21:06:47.353Z,2.90
2022-11-05T21:09:15.474Z,2.53
2022-11-05T21:12:02.196Z,2.70
2022-11-05T21:14:30.276Z,3.33
2022-11-05T21:16:58.345Z,3.47
2022-11-05T21:19:26.418Z,3.20
2022-11-05T21:21:54.445Z,4.70
2022-11-05T21:24:22.594Z,5.67
2022-11-05T21:26:51.993Z,5.60
2022-11-05T21:29:20.690Z,4.67
2022-11-05T21:31:49.018Z,7.07
2022-11-05T21:34:18.281Z,9.80
2022-11-05T21:36:47.108Z,9.40
2022-11-05T21:39:15.491Z,8.60
2022-11-05T21:41:43.662Z,8.57
2022-11-05T21:44:13.026Z,7.27
2022-11-05T21:46:40.994Z,5.40
2022-11-05T21:49:09.379Z,5.23
2022-11-05T21:51:54.902Z,6.40
2022-11-05T21:54:40.597Z,5.30
2022-11-05T21:57:31.771Z,6.00
2022-11-05T22:00:01.457Z,6.03
2022-11-05T22:02:30.050Z,5.23
2022-11-05T22:05:00.015Z,4.97
2022-11-05T22:07:30.098Z,4.30
2022-11-05T22:09:58.315Z,3.73
2022-11-05T22:12:26.884Z,3.83
2022-11-05T22:14:55.262Z,3.00
2022-11-05T22:17:24.937Z,2.90
2022-11-05T22:19:52.937Z,2.70
2022-11-05T22:22:20.993Z,2.70
2022-11-05T22:24:49.051Z,2.40
2022-11-05T22:27:20.537Z,2.70
2022-11-05T22:29:48.802Z,2.27
2022-11-05T22:32:17.654Z,3.10
2022-11-05T22:34:49.064Z,2.33
2022-11-05T22:37:17.192Z,2.20
2022-11-05T22:39:45.255Z,2.30
2022-11-05T22:42:13.339Z,1.77
2022-11-05T22:44:41.418Z,2.30
2022-11-05T22:47:09.479Z,2.07
2022-11-05T22:49:37.718Z,2.40
2022-11-05T22:52:07.409Z,1.90
2022-11-05T22:54:39.226Z,2.03
2022-11-05T22:57:08.593Z,2.17
2022-11-05T22:59:36.532Z,1.90
2022-11-05T23:02:09.488Z,1.90
2022-11-05T23:04:38.685Z,2.13
2022-11-05T23:07:27.853Z,2.07
2022-11-05T23:10:14.014Z,2.37
2022-11-05T23:12:43.626Z,2.00
2022-11-05T23:15:32.517Z,2.63
2022-11-05T23:18:18.078Z,2.10
2022-11-05T23:21:03.579Z,1.63
2022-11-05T23:23:50.267Z,2.00
2022-11-05T23:26:35.678Z,2.17
2022-11-05T23:29:04.263Z,1.97
2022-11-05T23:31:49.820Z,1.93
2022-11-05T23:34:17.831Z,1.90
2022-11-05T23:37:03.429Z,1.97
2022-11-05T23:39:34.038Z,1.87
2022-11-05T23:42:22.751Z,3.10
2022-11-05T23:45:11.721Z,4.07
2022-11-05T23:47:59.789Z,5.93
2022-11-05T23:50:28.023Z,4.13
2022-11-05T23:52:56.033Z,4.70
2022-11-05T23:55:26.169Z,5.67
2022-11-05T23:57:54.243Z,5.00
